createdAt,value
2022-09-05T00:02:00.396Z,18.26
2022-09-05T00:07:34.406Z,18.15
2022-09-05T00:12:17.073Z,18.15
2022-09-05T00:17:16.048Z,18.07
2022-09-05T00:24:34.755Z,17.95
2022-09-05T00:27:16.877Z,17.89
2022-09-05T00:32:15.834Z,17.89
2022-09-05T00:37:16.472Z,17.87
2022-09-05T00:42:15.686Z,17.87
2022-09-05T00:47:15.577Z,17.83
2022-09-05T00:52:15.530Z,17.71
2022-09-05T00:57:17.980Z,17.68
2022-09-05T01:02:15.480Z,17.57
2022-09-05T01:07:15.284Z,17.45
2022-09-05T01:12:15.557Z,17.38
2022-09-05T01:17:15.193Z,17.42
2022-09-05T01:22:15.131Z,17.44
2022-09-05T01:27:15.079Z,17.48
2022-09-05T01:32:15.023Z,17.48
2022-09-05T01:37:33.647Z,17.42
2022-09-05T01:42:15.855Z,17.39
2022-09-05T01:47:14.781Z,17.30
2022-09-05T01:52:15.702Z,17.26
2022-09-05T01:57:14.653Z,17.26
2022-09-05T02:02:15.703Z,17.16
2022-09-05T02:07:20.025Z,17.12
2022-09-05T02:12:15.488Z,17.14
2022-09-05T02:17:33.543Z,17.16
2022-09-05T02:22:15.310Z,17.20
2022-09-05T02:27:31.772Z,17.19
2022-09-05T02:32:15.227Z,17.16
2022-09-05T02:37:14.228Z,17.12
2022-09-05T02:45:07.589Z,17.05
2022-09-05T02:47:15.019Z,17.01
2022-09-05T02:57:24.566Z,16.96
2022-09-05T02:57:35.594Z,16.91
2022-09-05T03:02:25.520Z,16.75
2022-09-05T03:07:14.702Z,16.71
2022-09-05T03:12:29.547Z,16.66
2022-09-05T03:17:14.550Z,16.66
2022-09-05T03:22:13.497Z,16.66
2022-09-05T03:27:13.425Z,16.66
2022-09-05T03:32:13.394Z,16.66
2022-09-05T03:37:13.320Z,16.60
2022-09-05T03:42:14.650Z,16.54
2022-09-05T03:47:13.171Z,16.46
2022-09-05T03:57:10.323Z,16.36
2022-09-05T03:57:32.479Z,16.31
2022-09-05T04:04:30.419Z,16.31
2022-09-05T04:08:15.465Z,16.28
2022-09-05T04:12:13.838Z,16.23
2022-09-05T04:17:26.894Z,16.05
2022-09-05T04:22:19.778Z,16.09
2022-09-05T04:27:19.734Z,16.08
2022-09-05T04:32:19.863Z,16.08
2022-09-05T04:37:19.601Z,16.12
2022-09-05T04:42:19.552Z,16.12
2022-09-05T04:47:19.466Z,16.12
2022-09-05T04:52:29.420Z,16.09
2022-09-05T04:57:21.263Z,16.10
2022-09-05T05:06:05.461Z,16.12
2022-09-05T05:07:20.270Z,16.12
2022-09-05T05:17:59.174Z,16.12
2022-09-05T05:18:11.816Z,16.09
2022-09-05T05:22:19.943Z,16.15
2022-09-05T05:27:18.899Z,16.24
2022-09-05T05:32:24.913Z,16.26
2022-09-05T05:37:19.775Z,16.36
2022-09-05T05:42:20.613Z,16.50
2022-09-05T05:47:18.624Z,16.64
2022-09-05T05:52:19.573Z,16.72
2022-09-05T05:57:18.491Z,16.86
2022-09-05T06:02:18.515Z,17.01
2022-09-05T06:07:18.326Z,17.14
2022-09-05T06:14:54.845Z,17.15
2022-09-05T06:17:23.484Z,17.23
2022-09-05T06:22:21.204Z,17.29
2022-09-05T06:27:18.091Z,17.33
2022-09-05T06:32:18.067Z,17.31
2022-09-05T06:37:17.913Z,17.41
2022-09-05T06:42:42.013Z,17.80
2022-09-05T06:47:23.865Z,19.44
2022-09-05T06:52:28.407Z,21.35
2022-09-05T06:57:18.742Z,22.81
2022-09-05T07:02:17.679Z,23.76
2022-09-05T07:07:18.554Z,23.71
2022-09-05T07:12:17.470Z,24.36
2022-09-05T07:17:17.417Z,25.07
2022-09-05T07:22:29.510Z,25.55
2022-09-05T07:27:18.272Z,26.55
2022-09-05T07:32:22.416Z,27.32
2022-09-05T07:37:18.153Z,27.20
2022-09-05T07:42:17.172Z,26.95
2022-09-05T07:47:17.007Z,27.08
2022-09-05T07:56:48.857Z,28.23
2022-09-05T07:57:30.306Z,28.29
2022-09-05T08:02:17.849Z,28.91
2022-09-05T08:07:47.490Z,30.00
2022-09-05T08:12:17.703Z,31.06
2022-09-05T08:17:17.622Z,31.61
2022-09-05T08:22:16.545Z,31.15
2022-09-05T08:27:16.986Z,31.58
2022-09-05T08:32:16.440Z,30.54
2022-09-05T08:37:20.827Z,31.15
2022-09-05T08:42:17.302Z,31.47
2022-09-05T08:47:16.404Z,32.51
2022-09-05T08:52:16.183Z,32.60
2022-09-05T08:57:16.096Z,33.28
2022-09-05T09:02:46.125Z,34.05
2022-09-05T09:07:47.773Z,34.05
2022-09-05T09:12:16.906Z,35.10
2022-09-05T09:17:15.840Z,35.70
2022-09-05T09:22:15.781Z,35.34
2022-09-05T09:27:15.665Z,36.30
2022-09-05T09:32:16.634Z,35.66
2022-09-05T09:37:15.557Z,35.60
2022-09-05T09:42:32.748Z,35.80
2022-09-05T09:47:16.712Z,36.23
2022-09-05T09:52:20.978Z,36.68
2022-09-05T09:57:16.322Z,36.74
2022-09-05T10:04:12.513Z,37.14
2022-09-05T10:10:43.852Z,37.36
2022-09-05T10:12:16.204Z,37.25
2022-09-05T10:17:15.063Z,36.23
2022-09-05T10:27:16.026Z,37.92
2022-09-05T10:35:09.427Z,38.14
2022-09-05T10:37:15.803Z,38.19
2022-09-05T10:42:14.749Z,37.36
2022-09-05T10:47:14.721Z,37.68
2022-09-05T10:52:19.066Z,38.04
2022-09-05T10:57:14.549Z,37.75
2022-09-05T11:02:28.291Z,37.15
2022-09-05T11:07:15.466Z,37.77
2022-09-05T11:12:14.397Z,38.24
2022-09-05T11:17:14.308Z,38.08
2022-09-05T11:22:24.079Z,37.96
2022-09-05T11:27:25.333Z,38.08
2022-09-05T11:34:32.801Z,37.48
2022-09-05T11:39:52.873Z,36.99
2022-09-05T11:42:15.053Z,37.29
2022-09-05T11:47:29.856Z,37.49
2022-09-05T11:52:14.912Z,37.77
2022-09-05T11:57:32.908Z,37.74
2022-09-05T12:02:23.371Z,37.72
2022-09-05T12:07:26.974Z,37.32
2022-09-05T12:12:29.988Z,36.25
2022-09-05T12:17:16.990Z,36.76
2022-09-05T12:22:16.147Z,37.28
2022-09-05T12:27:41.797Z,37.26
2022-09-05T12:33:36.626Z,37.01
2022-09-05T12:40:44.683Z,36.68
2022-09-05T12:42:21.680Z,36.17
2022-09-05T12:47:18.999Z,35.90
2022-09-05T12:52:14.125Z,35.80
2022-09-05T13:00:08.562Z,35.19
2022-09-05T13:03:12.780Z,34.10
2022-09-05T13:07:13.896Z,34.33
2022-09-05T13:14:58.750Z,34.27
2022-09-05T13:17:13.819Z,34.10
2022-09-05T13:22:12.927Z,33.84
2022-09-05T13:27:12.656Z,33.46
2022-09-05T13:38:07.906Z,32.86
2022-09-05T13:38:21.155Z,33.22
2022-09-05T13:42:13.447Z,32.08
2022-09-05T13:47:29.328Z,31.97
2022-09-05T13:52:13.401Z,32.07
2022-09-05T13:57:12.401Z,32.11
2022-09-05T14:02:26.396Z,32.15
2022-09-05T14:12:13.098Z,31.58
2022-09-05T14:22:22.246Z,31.27
2022-09-05T14:27:12.882Z,31.37
2022-09-05T14:37:34.846Z,31.96
2022-09-05T14:37:44.746Z,31.96
2022-09-05T14:42:12.675Z,31.85
2022-09-05T14:47:32.207Z,31.84
2022-09-05T14:52:12.926Z,31.47
2022-09-05T14:58:37.062Z,31.44
2022-09-05T15:02:58.669Z,31.43
2022-09-05T15:07:12.346Z,31.28
2022-09-05T15:12:21.669Z,30.99
2022-09-05T15:17:12.237Z,30.81
2022-09-05T15:22:11.166Z,30.34
2022-09-05T15:27:11.076Z,30.10
2022-09-05T15:32:10.997Z,30.13
2022-09-05T15:37:22.466Z,30.10
2022-09-05T15:42:11.898Z,30.00
2022-09-05T15:47:10.799Z,29.90
2022-09-05T15:52:10.784Z,30.03
2022-09-05T15:57:17.390Z,30.18
2022-09-05T16:02:11.738Z,30.15
2022-09-05T16:10:45.946Z,29.87
2022-09-05T16:12:11.546Z,30.08
2022-09-05T16:23:11.506Z,30.23
2022-09-05T16:23:28.262Z,30.18
2022-09-05T16:27:11.299Z,29.73
2022-09-05T16:32:10.314Z,29.38
2022-09-05T16:37:10.193Z,29.02
2022-09-05T16:42:10.099Z,28.66
2022-09-05T16:47:10.039Z,28.32
2022-09-05T16:52:10.004Z,27.90
2022-09-05T16:57:11.079Z,27.51
2022-09-05T17:02:11.036Z,27.14
2022-09-05T17:07:09.835Z,26.95
2022-09-05T17:12:09.701Z,26.89
2022-09-05T17:17:19.738Z,26.89
2022-09-05T17:24:47.841Z,26.81
2022-09-05T17:29:33.949Z,26.65
2022-09-05T17:32:11.015Z,26.40
2022-09-05T17:37:12.678Z,25.66
2022-09-05T17:42:10.324Z,25.25
2022-09-05T17:47:09.282Z,25.04
2022-09-05T17:52:10.179Z,24.93
2022-09-05T17:57:09.105Z,24.93
2022-09-05T18:02:09.109Z,24.93
2022-09-05T18:07:08.965Z,24.84
2022-09-05T18:12:08.930Z,24.70
2022-09-05T18:17:37.717Z,24.60
2022-09-05T18:22:09.774Z,24.47
2022-09-05T18:27:28.236Z,24.38
2022-09-05T18:32:09.748Z,24.29
2022-09-05T18:37:08.567Z,24.13
2022-09-05T18:42:33.666Z,24.05
2022-09-05T18:47:31.898Z,23.96
2022-09-05T18:52:09.370Z,23.87
2022-09-05T18:57:26.741Z,23.77
2022-09-05T19:02:28.820Z,23.62
2022-09-05T19:07:09.214Z,23.41
2022-09-05T19:12:32.922Z,23.18
2022-09-05T19:17:09.102Z,22.96
2022-09-05T19:23:08.207Z,22.70
2022-09-05T19:29:15.635Z,22.50
2022-09-05T19:36:54.503Z,22.36
2022-09-05T19:47:27.951Z,21.80
2022-09-05T19:47:37.190Z,21.72
2022-09-05T19:52:08.547Z,21.57
2022-09-05T19:57:07.493Z,21.52
2022-09-05T20:02:07.476Z,21.58
2022-09-05T20:07:07.401Z,21.62
2022-09-05T20:12:07.320Z,21.60
2022-09-05T20:17:07.447Z,21.72
2022-09-05T20:22:31.847Z,21.85
2022-09-05T20:27:08.247Z,21.96
2022-09-05T20:32:07.014Z,22.00
2022-09-05T20:43:10.590Z,21.99
2022-09-05T20:43:29.306Z,21.92
2022-09-05T20:51:37.916Z,21.80
2022-09-05T20:54:15.414Z,21.91
2022-09-05T20:57:07.664Z,21.98
2022-09-05T21:02:06.725Z,21.96
2022-09-05T21:07:06.549Z,21.91
2022-09-05T21:12:06.450Z,21.76
2022-09-05T21:17:15.899Z,21.32
2022-09-05T21:22:07.343Z,21.05
2022-09-05T21:27:06.324Z,20.93
2022-09-05T21:32:10.930Z,20.90
2022-09-05T21:37:07.270Z,20.88
2022-09-05T21:42:19.947Z,20.75
2022-09-05T21:47:47.220Z,20.55
2022-09-05T21:52:07.009Z,20.44
2022-09-05T21:59:24.163Z,20.44
2022-09-05T22:02:06.953Z,20.50
2022-09-05T22:07:05.816Z,20.62
2022-09-05T22:12:19.572Z,20.77
2022-09-05T22:17:06.666Z,20.80
2022-09-05T22:22:05.584Z,20.78
2022-09-05T22:27:12.616Z,20.74
2022-09-05T22:32:06.457Z,20.63
2022-09-05T22:37:05.368Z,20.52
2022-09-05T22:42:10.124Z,20.40
2022-09-05T22:47:06.255Z,20.28
2022-09-05T22:52:05.172Z,20.14
2022-09-05T22:57:05.116Z,20.10
2022-09-05T23:02:05.060Z,20.10
2022-09-05T23:07:04.957Z,20.07
2022-09-05T23:12:04.937Z,20.00
2022-09-05T23:17:04.844Z,19.89
2022-09-05T23:22:04.891Z,19.85
2022-09-05T23:27:04.712Z,19.94
2022-09-05T23:32:04.628Z,20.00
2022-09-05T23:37:04.555Z,19.92
2022-09-05T23:42:04.480Z,19.84
2022-09-05T23:47:04.457Z,19.85
2022-09-05T23:52:04.355Z,19.86
2022-09-05T23:57:04.291Z,19.85
